Time;durP1;ratioP1;P1;durP2;ratioP2;P2;SDS_P1;SDS_P2;PMS_P1;PMS_P2;Temp;Humidity;BMP_temperature;BMP_pressure;BME280_temperature;BME280_humidity;BME280_pressure;Samples;Min_cycle;Max_cycle;Signal;HPM_P1;HPM_P2
2022/07/28 00:00:35;;;;;;;4.00;1.40;;;;;;;12.31;85.14;101431.06;4995721;28;20516;-70
2022/07/28 00:03:01;;;;;;;5.87;1.17;;;;;;;12.33;86.12;101433.47;4996447;28;20531;-70
2022/07/28 00:05:28;;;;;;;4.10;1.47;;;;;;;12.39;86.59;101437.72;4996210;28;20554;-70
2022/07/28 00:07:55;;;;;;;3.00;1.20;;;;;;;12.35;87.10;101432.09;4996305;28;20503;-70
2022/07/28 00:10:21;;;;;;;3.27;1.17;;;;;;;12.28;87.49;101436.25;4996159;28;20447;-71
2022/07/28 00:12:50;;;;;;;3.40;0.90;;;;;;;12.21;87.92;101435.78;4996002;28;20896;-70
2022/07/28 00:15:16;;;;;;;2.80;0.90;;;;;;;12.32;87.10;101427.22;4996019;28;20873;-70
2022/07/28 00:17:43;;;;;;;2.83;1.20;;;;;;;12.41;87.14;101435.53;4996054;28;20524;-70
2022/07/28 00:20:10;;;;;;;2.70;1.10;;;;;;;12.39;86.77;101432.28;4996065;28;20587;-71
2022/07/28 00:22:42;;;;;;;2.60;1.20;;;;;;;12.38;86.62;101438.84;4996111;28;20445;-70
2022/07/28 00:25:09;;;;;;;3.23;1.67;;;;;;;12.38;86.57;101436.13;4996045;28;20525;-70
2022/07/28 00:27:36;;;;;;;6.77;1.30;;;;;;;12.33;86.39;101434.28;4995819;28;20468;-70
2022/07/28 00:30:05;;;;;;;3.53;1.10;;;;;;;12.33;86.75;101439.72;4995720;28;20477;-70
2022/07/28 00:32:32;;;;;;;3.13;1.17;;;;;;;12.32;86.32;101434.56;4995664;28;21045;-70
2022/07/28 00:34:58;;;;;;;3.03;1.00;;;;;;;12.26;87.36;101436.56;4995621;28;20445;-70
2022/07/28 00:37:25;;;;;;;5.40;1.30;;;;;;;12.18;87.86;101434.50;4995611;28;20469;-70
2022/07/28 00:39:51;;;;;;;9.47;1.70;;;;;;;12.14;87.84;101436.16;4995668;28;21081;-70
2022/07/28 00:42:18;;;;;;;3.63;1.67;;;;;;;12.16;87.45;101439.38;4995309;28;21017;-70
2022/07/28 00:44:45;;;;;;;2.70;1.07;;;;;;;12.14;87.18;101438.88;4995534;28;20539;-70
2022/07/28 00:47:13;;;;;;;4.73;1.30;;;;;;;12.06;87.88;101434.09;4995122;28;20477;-70
2022/07/28 00:49:41;;;;;;;5.50;1.23;;;;;;;12.03;87.77;101443.59;4995516;28;20632;-71
2022/07/28 00:52:09;;;;;;;3.30;1.37;;;;;;;11.84;89.01;101432.69;4995489;28;20528;-71
2022/07/28 00:54:36;;;;;;;4.43;1.30;;;;;;;11.93;86.87;101423.91;4995954;28;20527;-71
2022/07/28 00:57:03;;;;;;;3.70;1.20;;;;;;;11.92;86.83;101431.25;4995142;28;21058;-71
2022/07/28 00:59:30;;;;;;;3.27;1.30;;;;;;;11.89;85.13;101431.03;4995229;28;20499;-71
2022/07/28 01:01:57;;;;;;;2.73;1.03;;;;;;;11.85;84.99;101428.88;4995214;28;20445;-71
2022/07/28 01:04:25;;;;;;;3.40;1.13;;;;;;;11.77;85.53;101445.75;4995316;28;20527;-70
2022/07/28 01:07:02;;;;;;;2.70;1.00;;;;;;;11.75;87.18;101439.03;4994921;28;20549;-71
2022/07/28 01:09:41;;;;;;;2.67;1.10;;;;;;;11.73;88.39;101439.31;4994868;28;20435;-71
2022/07/28 01:12:17;;;;;;;4.10;1.20;;;;;;;11.73;88.67;101444.75;4994323;28;20515;-71
2022/07/28 01:14:48;;;;;;;2.73;0.83;;;;;;;11.62;89.02;101444.03;4995423;28;20535;-71
2022/07/28 01:17:25;;;;;;;2.10;0.70;;;;;;;11.60;89.11;101443.50;4994884;28;21016;-70
2022/07/28 01:20:04;;;;;;;3.70;1.27;;;;;;;11.67;88.72;101447.78;4994626;28;20845;-70
2022/07/28 01:22:34;;;;;;;2.73;1.30;;;;;;;11.66;88.20;101455.13;4995045;28;20531;-71
2022/07/28 01:25:13;;;;;;;3.00;1.10;;;;;;;11.61;88.94;101447.03;4994798;28;20837;-70
2022/07/28 01:27:52;;;;;;;2.60;0.80;;;;;;;11.57;88.80;101454.94;4994799;28;20463;-70
2022/07/28 01:30:35;;;;;;;2.50;1.03;;;;;;;11.55;89.67;101453.59;4994954;28;20441;-70
2022/07/28 01:33:09;;;;;;;2.20;0.70;;;;;;;11.57;89.55;101454.94;4994814;28;20426;-72
2022/07/28 01:35:41;;;;;;;3.13;1.23;;;;;;;11.53;89.06;101451.16;4994579;28;21011;-70
2022/07/28 01:38:10;;;;;;;2.30;0.80;;;;;;;11.48;89.64;101451.22;4994660;28;20433;-70
2022/07/28 01:40:39;;;;;;;4.57;1.30;;;;;;;11.48;89.27;101456.66;4994369;28;20485;-70
2022/07/28 01:43:07;;;;;;;3.47;1.47;;;;;;;11.50;89.10;101451.72;4994276;28;21026;-70
2022/07/28 01:48:12;;;;;;;2.60;1.00;;;;;;;11.35;89.71;101441.03;5037319;22;20475;-71
2022/07/28 01:50:41;;;;;;;3.37;1.03;;;;;;;11.32;89.74;101452.44;5013699;28;20443;-71
2022/07/28 01:53:10;;;;;;;3.20;1.23;;;;;;;11.40;89.89;101445.59;5013688;28;20440;-71
2022/07/28 01:55:39;;;;;;;2.90;1.03;;;;;;;11.44;89.44;101450.16;5013651;28;20446;-71
2022/07/28 01:58:07;;;;;;;3.13;1.13;;;;;;;11.35;87.95;101447.25;5013545;28;20474;-71
2022/07/28 02:00:35;;;;;;;3.80;1.70;;;;;;;11.30;88.69;101454.63;5013185;28;20479;-71
2022/07/28 02:03:05;;;;;;;2.80;1.30;;;;;;;11.31;88.14;101446.22;5013807;28;20440;-71
2022/07/28 02:05:36;;;;;;;5.20;1.20;;;;;;;11.30;87.49;101439.19;5013568;28;20460;-71
2022/07/28 02:08:05;;;;;;;2.93;1.43;;;;;;;11.19;86.46;101437.63;5013420;28;20483;-71
2022/07/28 02:10:33;;;;;;;5.60;1.70;;;;;;;11.13;85.76;101438.78;5013458;28;20527;-71
2022/07/28 02:13:01;;;;;;;2.97;1.17;;;;;;;11.04;86.48;101435.06;5013439;28;20532;-73
2022/07/28 02:15:31;;;;;;;6.13;1.67;;;;;;;10.95;88.44;101434.03;5013663;28;20453;-73
2022/07/28 02:17:59;;;;;;;2.70;1.00;;;;;;;10.85;89.34;101429.50;5013319;28;20547;-72
2022/07/28 02:20:26;;;;;;;4.83;1.10;;;;;;;10.92;89.81;101432.69;5013313;28;20488;-70
2022/07/28 02:22:55;;;;;;;7.27;1.53;;;;;;;10.98;89.96;101436.16;5012920;28;20523;-71
2022/07/28 02:25:21;;;;;;;2.67;0.90;;;;;;;11.02;89.91;101437.22;5012978;28;20476;-71
2022/07/28 02:27:53;;;;;;;2.70;1.10;;;;;;;10.98;89.48;101423.44;5013299;28;20490;-70
2022/07/28 02:30:25;;;;;;;2.60;1.30;;;;;;;10.97;88.99;101437.25;5013424;28;20461;-69
2022/07/28 02:32:55;;;;;;;3.83;1.60;;;;;;;10.83;89.84;101434.38;5013438;28;20912;-70
2022/07/28 02:35:27;;;;;;;2.97;1.20;;;;;;;10.90;89.34;101439.50;5013312;28;20444;-70
2022/07/28 02:38:00;;;;;;;2.60;0.83;;;;;;;10.95;89.21;101434.84;5013306;28;20987;-70
2022/07/28 02:40:33;;;;;;;5.50;1.40;;;;;;;10.96;89.31;101439.16;5013258;28;20555;-70
2022/07/28 02:43:01;;;;;;;2.27;0.83;;;;;;;10.94;88.85;101445.97;5013238;28;20428;-70
2022/07/28 02:45:29;;;;;;;4.07;1.77;;;;;;;10.83;88.05;101450.66;5013306;28;20475;-70
2022/07/28 02:48:01;;;;;;;2.63;1.00;;;;;;;10.76;87.91;101445.56;5012971;28;21033;-70
2022/07/28 02:50:29;;;;;;;4.13;1.33;;;;;;;10.68;88.71;101451.56;5013209;28;20463;-69
2022/07/28 02:52:59;;;;;;;3.40;1.53;;;;;;;10.64;88.04;101449.69;5013196;28;20843;-70
2022/07/28 02:55:27;;;;;;;3.57;1.40;;;;;;;10.67;86.38;101449.94;5013182;28;20460;-70
2022/07/28 02:57:55;;;;;;;3.57;0.83;;;;;;;10.63;87.48;101446.16;5013243;28;20547;-70
2022/07/28 03:00:23;;;;;;;4.30;1.40;;;;;;;10.66;88.31;101455.63;5013084;28;20570;-69
2022/07/28 03:02:50;;;;;;;2.60;1.00;;;;;;;10.69;88.68;101458.59;5013045;28;20534;-70
2022/07/28 03:05:17;;;;;;;3.00;1.33;;;;;;;10.59;89.14;101458.66;5013104;28;20528;-70
2022/07/28 03:07:45;;;;;;;2.53;1.03;;;;;;;10.58;89.65;101459.72;5013005;28;20551;-70
2022/07/28 03:10:21;;;;;;;2.43;0.90;;;;;;;10.65;89.50;101451.31;5013041;28;20472;-71
2022/07/28 03:12:48;;;;;;;2.20;0.97;;;;;;;10.67;89.75;101452.66;5013044;28;20432;-71
2022/07/28 03:15:15;;;;;;;2.87;1.10;;;;;;;10.73;89.48;101458.84;5012967;28;20515;-71
2022/07/28 03:17:42;;;;;;;3.00;1.30;;;;;;;10.70;89.59;101462.91;5012916;28;20466;-71
2022/07/28 03:20:09;;;;;;;2.70;1.27;;;;;;;10.67;89.45;101457.22;5012868;28;20566;-71
2022/07/28 03:22:36;;;;;;;2.90;1.40;;;;;;;10.70;89.12;101465.63;5012602;28;20828;-70
2022/07/28 03:25:07;;;;;;;3.10;1.20;;;;;;;10.67;89.17;101462.66;5012577;28;20883;-70
2022/07/28 03:27:39;;;;;;;3.33;1.27;;;;;;;10.58;89.60;101473.28;5012808;28;20877;-71
2022/07/28 03:30:09;;;;;;;3.43;1.20;;;;;;;10.53;89.85;101474.09;5012798;28;20925;-70
2022/07/28 03:32:41;;;;;;;2.50;0.80;;;;;;;10.48;90.19;101482.25;5012803;28;20482;-71
2022/07/28 03:35:09;;;;;;;2.57;1.30;;;;;;;10.61;89.03;101483.56;5013983;28;20464;-70
2022/07/28 03:37:41;;;;;;;2.93;1.20;;;;;;;10.63;88.99;101488.72;5016170;28;20554;-70
2022/07/28 03:40:11;;;;;;;3.20;1.10;;;;;;;10.57;87.31;101487.91;5016059;28;20873;-70
2022/07/28 03:42:40;;;;;;;2.60;1.00;;;;;;;10.46;86.55;101492.56;5016161;28;20455;-71
2022/07/28 03:45:08;;;;;;;5.93;1.47;;;;;;;10.42;86.31;101477.16;5015787;28;21045;-68
2022/07/28 03:47:35;;;;;;;3.10;1.23;;;;;;;10.40;87.13;101488.25;5015668;28;20503;-69
2022/07/28 03:50:01;;;;;;;3.30;1.10;;;;;;;10.35;87.17;101489.09;5016039;28;20823;-69
2022/07/28 03:52:28;;;;;;;3.17;1.60;;;;;;;10.28;88.61;101487.78;5015977;28;20483;-68
2022/07/28 03:54:54;;;;;;;2.90;1.33;;;;;;;10.28;90.04;101487.78;5015939;28;20879;-69
2022/07/28 03:57:21;;;;;;;2.80;1.60;;;;;;;10.34;90.38;101490.19;5015794;28;20486;-68
2022/07/28 03:59:49;;;;;;;3.73;1.40;;;;;;;10.25;91.61;101486.44;5015846;28;20448;-68
2022/07/28 04:02:15;;;;;;;6.10;1.53;;;;;;;10.37;91.05;101490.72;5015408;28;20578;-67
2022/07/28 04:04:42;;;;;;;3.33;1.30;;;;;;;10.37;90.89;101498.84;5015712;28;21057;-68
2022/07/28 04:07:09;;;;;;;2.87;1.13;;;;;;;10.42;91.38;101498.81;5015586;28;20503;-68
2022/07/28 04:09:35;;;;;;;3.80;1.07;;;;;;;10.44;91.89;101508.28;5015650;28;20542;-68
2022/07/28 04:12:02;;;;;;;2.70;1.07;;;;;;;10.53;91.93;101505.81;5015634;28;20534;-67
2022/07/28 04:14:28;;;;;;;3.03;1.33;;;;;;;10.54;92.41;101508.25;5015524;28;20472;-68
2022/07/28 04:16:56;;;;;;;5.03;1.30;;;;;;;10.66;92.24;101516.03;5015456;28;20464;-68
2022/07/28 04:19:23;;;;;;;3.07;1.27;;;;;;;10.77;92.51;101511.41;5015476;28;20532;-68
2022/07/28 04:21:49;;;;;;;3.50;1.40;;;;;;;10.89;92.35;101502.91;5015367;28;20605;-68
2022/07/28 04:24:16;;;;;;;3.10;1.30;;;;;;;10.98;91.96;101512.06;5015350;28;20519;-69
2022/07/28 04:26:43;;;;;;;4.20;1.40;;;;;;;10.90;91.55;101508.06;5015319;28;20468;-68
2022/07/28 04:29:09;;;;;;;2.83;1.53;;;;;;;10.89;92.07;101506.47;5015320;28;20523;-68
2022/07/28 04:31:36;;;;;;;3.10;1.40;;;;;;;10.94;92.49;101505.63;5015227;28;20527;-68
2022/07/28 04:34:04;;;;;;;3.70;1.40;;;;;;;11.14;92.24;101504.66;5015231;28;20535;-68
2022/07/28 04:36:31;;;;;;;2.87;1.40;;;;;;;11.22;91.72;101507.56;5015080;28;20583;-69
2022/07/28 04:38:58;;;;;;;3.00;1.43;;;;;;;11.32;91.93;101509.41;5015100;28;20484;-68
2022/07/28 04:41:25;;;;;;;3.20;1.27;;;;;;;11.28;92.63;101511.84;5014979;28;20571;-69
2022/07/28 04:43:52;;;;;;;2.43;1.10;;;;;;;11.33;92.20;101508.31;5015052;28;20447;-69
2022/07/28 04:46:19;;;;;;;3.33;1.50;;;;;;;11.45;91.83;101516.88;5014589;28;20574;-69
2022/07/28 04:48:45;;;;;;;4.13;1.90;;;;;;;11.47;91.33;101514.72;5014660;28;21017;-68
2022/07/28 04:51:13;;;;;;;3.10;1.27;;;;;;;11.49;91.81;101522.56;5014852;28;20440;-68
2022/07/28 04:53:40;;;;;;;3.90;1.50;;;;;;;11.59;91.26;101523.28;5014878;28;20479;-69
2022/07/28 04:56:06;;;;;;;3.70;1.23;;;;;;;11.65;91.18;101518.63;5014426;28;20466;-68
2022/07/28 04:58:33;;;;;;;6.70;1.97;;;;;;;11.77;91.45;101527.19;5014751;28;20523;-68
2022/07/28 05:01:00;;;;;;;4.43;1.83;;;;;;;11.85;91.24;101523.09;5014379;28;20570;-68
2022/07/28 05:03:26;;;;;;;2.80;1.37;;;;;;;12.00;91.01;101527.56;5014364;28;20524;-71
2022/07/28 05:05:53;;;;;;;4.43;1.93;;;;;;;12.11;90.25;101516.28;5014254;28;20900;-70
2022/07/28 05:08:21;;;;;;;5.53;1.90;;;;;;;12.21;90.39;101523.53;5014529;28;20531;-70
2022/07/28 05:10:48;;;;;;;2.97;1.27;;;;;;;12.35;89.78;101518.19;5014544;28;20443;-70
2022/07/28 05:13:15;;;;;;;3.40;1.60;;;;;;;12.46;89.46;101524.34;5014708;28;20444;-73
2022/07/28 05:15:41;;;;;;;2.63;1.00;;;;;;;12.56;89.40;101516.03;5014152;28;20534;-70
2022/07/28 05:18:08;;;;;;;2.80;1.20;;;;;;;12.69;88.92;101518.06;5014312;28;20547;-70
2022/07/28 05:20:34;;;;;;;3.80;1.17;;;;;;;12.82;88.55;101514.59;5014267;28;20535;-68
2022/07/28 05:23:02;;;;;;;7.37;1.50;;;;;;;12.94;88.41;101526.97;5014032;28;21038;-69
2022/07/28 05:25:30;;;;;;;4.23;1.40;;;;;;;13.03;88.82;101528.72;5014161;28;20450;-69
2022/07/28 05:27:57;;;;;;;5.17;1.47;;;;;;;13.16;88.67;101520.94;5014175;28;20496;-70
2022/07/28 05:30:24;;;;;;;3.20;1.40;;;;;;;13.24;88.11;101521.13;5014166;28;20531;-69
2022/07/28 05:32:52;;;;;;;6.70;1.03;;;;;;;13.36;87.63;101526.88;5014125;28;20523;-69
2022/07/28 05:35:19;;;;;;;2.87;1.27;;;;;;;13.49;86.76;101529.97;5013917;28;20448;-70
2022/07/28 05:37:45;;;;;;;3.13;1.33;;;;;;;13.60;86.75;101534.16;5013993;28;20472;-70
2022/07/28 05:40:14;;;;;;;4.27;1.40;;;;;;;13.73;86.73;101532.56;5013767;28;20526;-68
2022/07/28 05:42:43;;;;;;;9.03;1.37;;;;;;;13.83;86.29;101535.91;5013573;28;21088;-67
2022/07/28 05:45:11;;;;;;;2.97;1.20;;;;;;;13.94;85.49;101528.34;5014151;28;20448;-71
2022/07/28 05:47:44;;;;;;;2.90;1.17;;;;;;;14.08;84.81;101531.13;5013335;28;20563;-71
2022/07/28 05:50:11;;;;;;;2.53;1.00;;;;;;;14.12;83.85;101538.41;5013907;28;20448;-67
2022/07/28 05:52:37;;;;;;;4.10;1.10;;;;;;;14.29;82.81;101537.78;5013853;28;20479;-67
2022/07/28 05:55:06;;;;;;;2.40;0.83;;;;;;;14.42;82.94;101538.09;5013763;28;20443;-67
2022/07/28 05:57:33;;;;;;;5.60;1.20;;;;;;;14.55;81.24;101545.50;5013158;28;20546;-68
2022/07/28 06:00:01;;;;;;;2.43;0.83;;;;;;;14.65;80.80;101550.72;5013716;28;20458;-73
2022/07/28 06:02:27;;;;;;;2.63;0.90;;;;;;;14.74;81.84;101548.09;5013270;28;20492;-74
2022/07/28 06:04:54;;;;;;;3.10;0.97;;;;;;;14.84;80.15;101562.34;5013719;28;20534;-71
2022/07/28 06:07:20;;;;;;;5.87;1.33;;;;;;;14.87;79.03;101548.09;5013758;28;20460;-72
2022/07/28 06:09:47;;;;;;;3.20;0.90;;;;;;;15.00;77.80;101556.53;5013311;28;21101;-72
2022/07/28 06:12:14;;;;;;;2.57;0.83;;;;;;;15.15;78.66;101553.47;5013480;28;20535;-72
2022/07/28 06:14:40;;;;;;;2.40;0.70;;;;;;;15.26;77.10;101549.38;5013547;28;20443;-72
2022/07/28 06:17:08;;;;;;;2.47;0.70;;;;;;;15.40;75.84;101557.50;5013433;28;20562;-71
2022/07/28 06:19:35;;;;;;;5.50;1.20;;;;;;;15.42;74.03;101562.69;5013494;28;20526;-72
2022/07/28 06:22:02;;;;;;;4.73;0.93;;;;;;;15.57;73.92;101560.38;5013216;28;21071;-71
2022/07/28 06:24:29;;;;;;;2.20;0.77;;;;;;;15.73;73.21;101563.56;5013458;28;20452;-71
2022/07/28 06:26:56;;;;;;;2.87;0.80;;;;;;;15.83;74.48;101563.31;5013351;28;20537;-71
2022/07/28 06:29:23;;;;;;;5.30;0.90;;;;;;;15.91;72.94;101559.03;5013268;28;20539;-71
2022/07/28 06:31:50;;;;;;;2.03;0.50;;;;;;;16.02;71.96;101565.00;5013365;28;20439;-71
2022/07/28 06:34:18;;;;;;;2.57;0.97;;;;;;;16.11;70.23;101565.84;5013357;28;20471;-71
2022/07/28 06:36:44;;;;;;;2.50;0.67;;;;;;;16.23;70.21;101570.75;5012992;28;21037;-71
2022/07/28 06:39:11;;;;;;;2.40;0.97;;;;;;;16.26;69.34;101567.41;5013396;28;20527;-70
2022/07/28 06:41:40;;;;;;;2.30;0.70;;;;;;;16.35;68.53;101562.78;5013096;28;20480;-70
2022/07/28 06:44:07;;;;;;;5.93;1.30;;;;;;;16.45;67.49;101564.41;5013177;28;20448;-70
2022/07/28 06:46:33;;;;;;;4.23;0.83;;;;;;;16.58;67.90;101566.22;5012983;28;20555;-70
2022/07/28 06:49:00;;;;;;;2.83;0.93;;;;;;;16.71;68.89;101567.22;5013006;28;20637;-70
2022/07/28 06:51:28;;;;;;;2.53;0.83;;;;;;;16.76;70.77;101558.88;5013061;28;20535;-70
2022/07/28 06:53:55;;;;;;;2.53;0.80;;;;;;;16.89;68.81;101563.44;5013115;28;20539;-70
2022/07/28 06:56:21;;;;;;;4.57;0.80;;;;;;;16.94;68.71;101563.25;5013003;28;20551;-70
2022/07/28 06:58:48;;;;;;;2.30;0.60;;;;;;;16.93;68.16;101561.66;5013059;28;20551;-70
2022/07/28 07:01:15;;;;;;;3.57;0.97;;;;;;;16.95;64.82;101561.34;5012535;28;20475;-70
2022/07/28 07:03:42;;;;;;;2.53;0.70;;;;;;;17.00;65.03;101561.16;5012713;28;20447;-70
2022/07/28 07:06:09;;;;;;;2.73;0.90;;;;;;;17.05;64.71;101558.31;5013149;28;20486;-70
2022/07/28 07:08:37;;;;;;;2.67;0.70;;;;;;;17.09;65.92;101553.81;5012563;28;20965;-70
2022/07/28 07:11:04;;;;;;;4.40;0.67;;;;;;;17.15;67.23;101552.50;5015733;28;21037;-70
2022/07/28 07:13:31;;;;;;;2.10;0.60;;;;;;;17.19;66.84;101544.47;5016737;28;20478;-70
2022/07/28 07:15:58;;;;;;;8.23;0.97;;;;;;;17.24;64.91;101555.25;5016200;28;20942;-70
2022/07/28 07:18:25;;;;;;;2.20;0.70;;;;;;;17.34;62.75;101555.72;5016523;28;20462;-70
2022/07/28 07:20:53;;;;;;;3.83;0.87;;;;;;;17.40;63.22;101554.44;5016441;28;20440;-70
2022/07/28 07:23:20;;;;;;;2.43;0.90;;;;;;;17.52;63.26;101551.03;5016722;28;20586;-70
2022/07/28 07:25:48;;;;;;;2.27;0.60;;;;;;;17.57;62.81;101558.28;5016407;28;20571;-70
2022/07/28 07:28:14;;;;;;;3.33;1.13;;;;;;;17.63;63.37;101551.50;5016465;28;20620;-70
2022/07/28 07:30:41;;;;;;;9.20;1.73;;;;;;;17.67;61.54;101554.41;5016055;28;20440;-70
2022/07/28 07:33:08;;;;;;;2.20;0.80;;;;;;;17.68;62.90;101547.78;5016330;28;20440;-70
2022/07/28 07:35:36;;;;;;;3.23;0.70;;;;;;;17.74;63.22;101549.25;5015987;28;21009;-70
2022/07/28 07:38:03;;;;;;;3.17;1.03;;;;;;;17.79;62.00;101560.03;5016172;28;20514;-70
2022/07/28 07:40:30;;;;;;;10.60;1.27;;;;;;;17.76;62.03;101549.75;5016220;28;20440;-70
2022/07/28 07:42:58;;;;;;;4.57;0.97;;;;;;;17.77;63.65;101559.56;5016099;28;20488;-70
2022/07/28 07:45:25;;;;;;;2.27;0.73;;;;;;;17.83;63.24;101564.53;5015832;28;20968;-70
2022/07/28 07:47:51;;;;;;;2.00;0.60;;;;;;;17.82;64.67;101554.72;5015879;28;20562;-70
2022/07/28 07:50:18;;;;;;;2.40;0.70;;;;;;;17.92;62.90;101552.75;5050373;23;20593;-67
2022/07/28 07:52:44;;;;;;;3.03;0.83;;;;;;;18.04;62.85;101550.94;5036091;28;20552;-67
2022/07/28 07:55:11;;;;;;;2.83;1.03;;;;;;;18.13;62.24;101559.16;5035917;28;20465;-69
2022/07/28 07:57:38;;;;;;;2.40;0.80;;;;;;;18.32;62.41;101562.28;5036143;28;20454;-68
2022/07/28 08:00:07;;;;;;;3.10;0.83;;;;;;;18.47;60.37;101563.69;5035644;28;20513;-69
2022/07/28 08:02:34;;;;;;;2.10;0.70;;;;;;;18.63;59.80;101561.16;5035540;28;20491;-68
2022/07/28 08:05:00;;;;;;;2.93;0.50;;;;;;;18.75;59.88;101564.03;5035644;28;20618;-68
2022/07/28 08:07:27;;;;;;;4.87;1.00;;;;;;;18.78;57.57;101559.84;5035506;28;20439;-75
2022/07/28 08:09:53;;;;;;;2.60;0.83;;;;;;;18.75;58.19;101550.31;5035444;28;20542;-69
2022/07/28 08:12:20;;;;;;;2.20;0.60;;;;;;;18.73;59.35;101555.34;5035394;28;20937;-68
2022/07/28 08:14:47;;;;;;;2.30;0.80;;;;;;;18.87;57.54;101558.63;5035440;28;20431;-68
2022/07/28 08:17:14;;;;;;;2.63;1.03;;;;;;;18.92;58.51;101556.84;5035128;28;20941;-70
2022/07/28 08:19:41;;;;;;;2.10;0.70;;;;;;;18.98;59.02;101550.00;5035330;28;20459;-69
2022/07/28 08:22:08;;;;;;;3.30;0.83;;;;;;;19.06;57.80;101555.41;5034755;28;20525;-69
2022/07/28 08:24:34;;;;;;;2.90;0.80;;;;;;;18.99;56.58;101551.59;5035239;28;20517;-70
2022/07/28 08:27:01;;;;;;;1.97;0.53;;;;;;;19.16;57.15;101546.78;5035236;28;20819;-69
2022/07/28 08:29:28;;;;;;;2.03;0.63;;;;;;;19.23;57.83;101551.75;5034778;28;20555;-70
2022/07/28 08:31:54;;;;;;;3.17;0.63;;;;;;;19.48;57.24;101554.59;5035327;28;20534;-67
2022/07/28 08:34:23;;;;;;;2.40;0.77;;;;;;;19.64;56.59;101556.41;5035062;28;20530;-68
2022/07/28 08:36:50;;;;;;;3.20;1.20;;;;;;;19.68;56.45;101551.03;5034686;28;20945;-67
2022/07/28 08:39:17;;;;;;;2.07;0.67;;;;;;;19.70;54.78;101561.69;5034890;28;20526;-70
2022/07/28 08:41:48;;;;;;;2.80;1.07;;;;;;;19.73;55.25;101567.31;5034635;28;20530;-69
2022/07/28 08:44:17;;;;;;;2.43;0.73;;;;;;;19.76;55.27;101563.88;5034929;28;20515;-69
2022/07/28 08:46:45;;;;;;;2.90;0.73;;;;;;;19.78;57.41;101577.28;5034551;28;20482;-68
2022/07/28 08:49:12;;;;;;;2.60;1.00;;;;;;;19.87;57.68;101573.31;5034752;28;20451;-70
2022/07/28 08:51:42;;;;;;;3.00;0.80;;;;;;;19.90;56.06;101574.56;5034773;28;20431;-68
2022/07/28 08:54:12;;;;;;;3.43;0.90;;;;;;;19.81;52.38;101573.88;5034710;28;20855;-68
2022/07/28 08:56:41;;;;;;;2.10;0.60;;;;;;;19.81;53.27;101571.91;5034808;28;20493;-68
2022/07/28 08:59:07;;;;;;;11.13;0.90;;;;;;;19.87;53.48;101559.53;5034817;28;20549;-69
2022/07/28 09:01:34;;;;;;;3.60;0.73;;;;;;;19.91;53.66;101568.72;5034706;28;20530;-70
2022/07/28 09:04:02;;;;;;;2.10;0.70;;;;;;;19.76;53.96;101554.84;5034335;28;20491;-71
2022/07/28 09:06:29;;;;;;;3.10;1.03;;;;;;;19.96;55.30;101564.16;5034592;28;20509;-71
2022/07/28 09:08:57;;;;;;;3.10;0.60;;;;;;;20.14;54.48;101566.38;5034363;28;20443;-71
2022/07/28 09:11:23;;;;;;;2.07;0.63;;;;;;;20.22;54.43;101563.84;5034282;28;20566;-72
2022/07/28 09:13:50;;;;;;;3.23;0.80;;;;;;;20.21;54.09;101562.25;5034388;28;20538;-70
2022/07/28 09:16:17;;;;;;;2.83;0.70;;;;;;;20.35;53.85;101565.47;5034208;28;20534;-73
2022/07/28 09:18:44;;;;;;;4.97;0.80;;;;;;;20.32;54.62;101564.22;5034471;28;20526;-70
2022/07/28 09:21:13;;;;;;;2.50;0.53;;;;;;;20.43;51.95;101564.56;5033755;28;20511;-69
2022/07/28 09:23:45;;;;;;;2.57;0.83;;;;;;;20.60;51.93;101569.06;5033830;28;20478;-70
2022/07/28 09:26:13;;;;;;;2.47;0.60;;;;;;;20.56;51.66;101565.41;5033990;28;20446;-68
2022/07/28 09:28:54;;;;;;;2.30;0.80;;;;;;;20.69;50.37;101564.25;5034563;28;20992;-69
2022/07/28 09:31:21;;;;;;;3.37;0.70;;;;;;;20.71;49.51;101567.44;5033835;28;20475;-72
2022/07/28 09:34:00;;;;;;;4.83;0.60;;;;;;;20.66;50.29;101562.97;5033300;28;20442;-70
2022/07/28 09:36:28;;;;;;;2.13;0.67;;;;;;;20.65;51.31;101569.63;5034191;28;20489;-70
2022/07/28 09:38:55;;;;;;;2.53;0.67;;;;;;;20.56;51.60;101568.16;5034201;28;20439;-69
2022/07/28 09:41:24;;;;;;;2.50;0.83;;;;;;;20.37;52.36;101572.25;5033930;28;20467;-69
2022/07/28 09:43:52;;;;;;;2.40;0.90;;;;;;;20.32;54.33;101557.88;5033764;28;20573;-71
2022/07/28 09:46:20;;;;;;;3.83;0.77;;;;;;;20.53;52.80;101564.13;5033827;28;20490;-70
2022/07/28 09:48:53;;;;;;;3.70;0.93;;;;;;;20.54;51.47;101568.50;5033892;28;20443;-69
2022/07/28 09:51:22;;;;;;;3.03;0.73;;;;;;;20.61;50.81;101567.91;5033469;28;20501;-70
2022/07/28 09:53:48;;;;;;;2.40;0.93;;;;;;;20.55;52.46;101572.06;5033721;28;20534;-70
2022/07/28 09:56:15;;;;;;;2.57;0.80;;;;;;;20.58;51.84;101566.63;5033368;28;20453;-69
2022/07/28 09:58:53;;;;;;;4.23;1.00;;;;;;;20.60;51.50;101563.56;5033729;28;20869;-69
2022/07/28 10:01:21;;;;;;;2.20;0.70;;;;;;;20.65;51.21;101560.56;5033461;28;20473;-70
2022/07/28 10:03:51;;;;;;;2.40;0.80;;;;;;;20.69;50.97;101563.44;5033479;28;20493;-69
2022/07/28 10:06:25;;;;;;;2.10;0.57;;;;;;;20.61;49.82;101565.16;5033598;28;20512;-70
2022/07/28 10:08:53;;;;;;;2.57;0.90;;;;;;;20.43;50.24;101556.31;5033096;28;20797;-69
2022/07/28 10:11:23;;;;;;;2.20;0.77;;;;;;;20.13;50.19;101545.50;5033682;28;20463;-71
2022/07/28 10:13:59;;;;;;;2.40;0.80;;;;;;;20.24;51.34;101551.38;5033585;28;20428;-69
2022/07/28 10:16:29;;;;;;;2.33;0.67;;;;;;;20.35;51.89;101544.25;5033478;28;20439;-71
2022/07/28 10:18:56;;;;;;;4.70;0.90;;;;;;;20.50;50.43;101544.75;5033413;28;20483;-73
2022/07/28 10:21:25;;;;;;;8.17;1.27;;;;;;;20.42;50.91;101544.50;5032866;28;20502;-69
2022/07/28 10:23:53;;;;;;;4.33;1.10;;;;;;;20.65;50.38;101549.56;5033131;28;20491;-69
2022/07/28 10:26:24;;;;;;;2.13;0.73;;;;;;;20.79;51.17;101538.97;5032952;28;20933;-70
2022/07/28 10:28:52;;;;;;;1.90;0.60;;;;;;;20.98;50.25;101543.06;5033086;28;20507;-68
2022/07/28 10:31:29;;;;;;;2.50;1.00;;;;;;;21.03;49.17;101542.81;5032778;28;20511;-70
2022/07/28 10:33:59;;;;;;;2.63;0.90;;;;;;;21.00;49.39;101544.31;5033173;28;20485;-69
2022/07/28 10:36:26;;;;;;;2.70;0.90;;;;;;;21.02;51.35;101541.22;5032802;28;20518;-72
2022/07/28 10:39:01;;;;;;;2.20;0.77;;;;;;;21.13;51.97;101539.59;5032991;28;20435;-68
2022/07/28 10:41:38;;;;;;;2.60;1.00;;;;;;;21.23;49.25;101533.56;5032887;28;20523;-68
2022/07/28 10:44:05;;;;;;;2.10;0.70;;;;;;;21.39;50.26;101539.97;5034483;28;20488;-69
2022/07/28 10:46:34;;;;;;;1.97;0.63;;;;;;;21.56;49.88;101538.88;5036752;28;20541;-70
2022/07/28 10:49:01;;;;;;;2.33;0.80;;;;;;;21.60;48.28;101533.44;5036928;28;20483;-70
2022/07/28 10:51:28;;;;;;;3.80;0.90;;;;;;;21.56;48.17;101538.88;5036987;28;20514;-71
2022/07/28 10:54:01;;;;;;;4.80;1.00;;;;;;;21.77;47.35;101535.88;5037271;28;20525;-69
2022/07/28 10:56:36;;;;;;;3.03;0.93;;;;;;;21.83;47.97;101534.47;5036869;28;20459;-70
2022/07/28 10:59:09;;;;;;;2.83;1.00;;;;;;;22.07;48.00;101536.25;5036836;28;20518;-70
2022/07/28 11:01:39;;;;;;;2.30;0.90;;;;;;;22.15;45.57;101532.53;5036910;28;20435;-71
2022/07/28 11:04:06;;;;;;;2.23;0.70;;;;;;;22.22;46.22;101537.41;5037432;28;20485;-69
2022/07/28 11:06:35;;;;;;;2.20;0.70;;;;;;;22.10;45.39;101534.75;5036972;28;20446;-69
2022/07/28 11:09:21;;;;;;;2.77;0.73;;;;;;;22.02;49.33;101528.25;5036351;28;20447;-70
2022/07/28 11:11:49;;;;;;;2.83;0.90;;;;;;;22.16;45.95;101531.38;5036827;28;20430;-71
2022/07/28 11:14:32;;;;;;;2.73;0.83;;;;;;;22.40;44.97;101532.31;5036577;28;20788;-70
2022/07/28 11:17:17;;;;;;;1.90;0.63;;;;;;;22.51;46.54;101524.31;5036591;28;20508;-69
2022/07/28 11:19:52;;;;;;;3.73;0.87;;;;;;;22.68;44.58;101526.69;5036459;28;20527;-70
2022/07/28 11:22:27;;;;;;;2.00;0.70;;;;;;;22.97;44.82;101532.84;5036109;28;20522;-70
2022/07/28 11:25:16;;;;;;;1.90;0.70;;;;;;;23.06;43.39;101525.94;5036152;28;20820;-70
2022/07/28 11:28:00;;;;;;;4.00;0.80;;;;;;;23.37;43.59;101522.25;5036114;28;20482;-72
2022/07/28 11:30:52;;;;;;;4.47;0.70;;;;;;;23.59;43.30;101520.66;5036235;28;20549;-68
2022/07/28 11:33:21;;;;;;;2.70;0.80;;;;;;;23.71;42.23;101525.25;5031428;28;20455;-72